Time;durP1;ratioP1;P1;durP2;ratioP2;P2;SDS_P1;SDS_P2;PMS_P1;PMS_P2;Temp;Humidity;BMP_temperature;BMP_pressure;BME280_temperature;BME280_humidity;BME280_pressure;Samples;Min_cycle;Max_cycle;Signal;HPM_P1;HPM_P2
2021/10/14 00:01:16;;;;;;;3.70;1.95;;;;;;;19.93;30.65;100515.28;4991081;28;20105;-63
2021/10/14 00:03:43;;;;;;;9.75;3.65;;;;;;;19.83;30.55;100504.34;4987385;28;20046;-63
2021/10/14 00:06:11;;;;;;;7.30;3.67;;;;;;;19.83;31.10;100513.69;4993160;28;20449;-63
2021/10/14 00:08:38;;;;;;;6.85;2.55;;;;;;;19.70;31.63;100511.09;4988381;28;20141;-62
2021/10/14 00:11:05;;;;;;;5.20;2.53;;;;;;;19.55;31.97;100516.13;4985326;28;20566;-63
2021/10/14 00:13:32;;;;;;;9.52;2.88;;;;;;;19.39;32.53;100517.91;4992559;28;20055;-63
2021/10/14 00:15:59;;;;;;;6.47;2.80;;;;;;;19.35;32.41;100514.94;4991003;28;20130;-62
2021/10/14 00:18:26;;;;;;;6.30;3.05;;;;;;;19.41;31.93;100530.53;4978909;28;20042;-64
2021/10/14 00:20:53;;;;;;;5.53;3.08;;;;;;;19.37;31.68;100520.25;4990553;28;20046;-63
2021/10/14 00:23:21;;;;;;;4.82;2.58;;;;;;;19.32;31.72;100520.44;4992849;28;20049;-63
2021/10/14 00:25:48;;;;;;;5.78;2.35;;;;;;;19.48;31.42;100532.84;4994675;28;20074;-63
2021/10/14 00:28:15;;;;;;;6.28;2.38;;;;;;;19.54;31.31;100514.47;4996422;28;20050;-64
2021/10/14 00:30:42;;;;;;;4.63;2.30;;;;;;;19.71;31.08;100524.91;4994456;28;20137;-64
2021/10/14 00:33:09;;;;;;;4.30;2.17;;;;;;;19.76;30.84;100527.56;4992112;28;20054;-62
2021/10/14 00:35:37;;;;;;;6.80;3.08;;;;;;;19.78;30.71;100525.19;4989999;28;20046;-62
2021/10/14 00:38:03;;;;;;;4.90;2.00;;;;;;;19.82;30.70;100522.50;4994874;28;20093;-63
2021/10/14 00:40:32;;;;;;;4.15;2.20;;;;;;;19.84;30.49;100523.00;4976986;28;20142;-69
2021/10/14 00:42:59;;;;;;;3.00;1.75;;;;;;;19.97;29.93;100519.06;4993507;28;20218;-71
2021/10/14 00:45:25;;;;;;;5.20;1.80;;;;;;;19.96;30.03;100514.56;4994996;28;20149;-71
2021/10/14 00:47:52;;;;;;;4.00;1.38;;;;;;;19.97;30.20;100518.25;4989812;28;20409;-66
2021/10/14 00:50:19;;;;;;;3.45;1.30;;;;;;;19.95;30.02;100517.75;4995047;28;20156;-64
2021/10/14 00:52:46;;;;;;;2.67;1.85;;;;;;;19.89;30.12;100519.94;4995763;28;20062;-63
2021/10/14 00:55:14;;;;;;;5.15;2.67;;;;;;;19.77;30.53;100509.38;4988969;28;20138;-60
2021/10/14 00:57:42;;;;;;;3.65;1.60;;;;;;;19.62;30.34;100492.94;4993644;28;20074;-63
2021/10/14 01:00:09;;;;;;;5.53;2.35;;;;;;;19.65;30.82;100521.44;4993826;28;20142;-60
2021/10/14 01:02:36;;;;;;;2.55;1.45;;;;;;;19.55;31.16;100513.31;4988805;28;20077;-60
2021/10/14 01:05:04;;;;;;;2.58;1.65;;;;;;;19.45;31.45;100510.84;4994841;28;20050;-59
2021/10/14 01:07:31;;;;;;;4.28;1.90;;;;;;;19.53;31.32;100524.16;4995398;28;20509;-59
2021/10/14 01:09:58;;;;;;;4.20;2.42;;;;;;;19.26;31.63;100499.16;4991655;28;20174;-59
2021/10/14 01:12:27;;;;;;;3.72;2.08;;;;;;;19.29;32.24;100513.47;4994859;28;20122;-61
2021/10/14 01:14:54;;;;;;;3.95;1.65;;;;;;;19.03;33.21;100518.38;4991829;28;20746;-62
2021/10/14 01:17:20;;;;;;;4.22;2.20;;;;;;;18.93;32.75;100513.91;4984767;28;20130;-65
2021/10/14 01:19:47;;;;;;;5.53;1.63;;;;;;;18.90;33.51;100517.44;4990033;28;20100;-66
2021/10/14 01:22:14;;;;;;;3.83;2.47;;;;;;;18.64;33.73;100507.00;4988064;28;20042;-62
2021/10/14 01:24:41;;;;;;;5.22;2.08;;;;;;;18.66;33.96;100513.13;4991713;28;20486;-62
2021/10/14 01:27:09;;;;;;;4.32;1.88;;;;;;;18.52;34.56;100506.84;4986683;28;20138;-65
2021/10/14 01:29:36;;;;;;;4.35;2.35;;;;;;;18.45;34.41;100520.66;4985540;28;20080;-62
2021/10/14 01:32:04;;;;;;;4.63;2.28;;;;;;;18.32;34.73;100505.53;4986135;28;20046;-69
2021/10/14 01:34:31;;;;;;;5.72;2.40;;;;;;;18.27;35.03;100505.72;4991986;28;20125;-62
2021/10/14 01:36:59;;;;;;;5.00;2.00;;;;;;;18.29;34.98;100511.03;4979657;28;20137;-62
2021/10/14 01:39:26;;;;;;;2.92;1.75;;;;;;;18.26;35.09;100509.72;4986720;28;20076;-66
2021/10/14 01:41:53;;;;;;;2.55;1.85;;;;;;;18.17;35.02;100509.69;4985434;28;20136;-64
2021/10/14 01:44:19;;;;;;;3.27;1.80;;;;;;;18.13;34.92;100511.53;4989857;28;20082;-68
2021/10/14 01:46:47;;;;;;;2.88;1.77;;;;;;;18.11;34.94;100524.31;4990393;28;20133;-62
2021/10/14 01:49:13;;;;;;;3.35;1.98;;;;;;;18.16;34.63;100513.69;4984339;28;20133;-66
2021/10/14 01:51:40;;;;;;;4.20;2.17;;;;;;;18.07;34.64;100476.13;4992304;28;20121;-67
2021/10/14 01:54:07;;;;;;;4.68;2.05;;;;;;;18.32;34.36;100513.19;4992967;28;20142;-68
2021/10/14 01:56:34;;;;;;;6.03;1.73;;;;;;;18.44;33.88;100513.34;4985293;28;20135;-67
2021/10/14 01:59:01;;;;;;;5.13;1.73;;;;;;;18.48;33.74;100518.00;4993664;28;20120;-68
2021/10/14 02:01:28;;;;;;;3.63;1.30;;;;;;;18.57;33.56;100526.47;4995313;28;20074;-68
2021/10/14 02:03:55;;;;;;;3.45;1.38;;;;;;;18.58;33.72;100516.81;4994229;28;20046;-67
2021/10/14 02:06:22;;;;;;;1.67;1.10;;;;;;;18.63;33.36;100521.44;4993387;28;20133;-67
2021/10/14 02:08:49;;;;;;;3.30;1.38;;;;;;;18.66;33.52;100518.78;4989515;28;20446;-66
2021/10/14 02:11:16;;;;;;;4.15;1.05;;;;;;;18.78;33.03;100517.31;4993895;28;20109;-69
2021/10/14 02:13:42;;;;;;;2.55;1.40;;;;;;;18.70;32.98;100502.00;4991494;28;20133;-69
2021/10/14 02:16:09;;;;;;;1.58;1.02;;;;;;;18.84;32.17;100507.47;4992722;28;20154;-68
2021/10/14 02:18:36;;;;;;;2.13;1.13;;;;;;;18.83;32.32;100503.78;4981187;28;20145;-68
2021/10/14 02:21:03;;;;;;;2.55;1.35;;;;;;;18.82;32.52;100510.63;4993508;28;20057;-64
2021/10/14 02:23:31;;;;;;;2.42;1.42;;;;;;;18.78;32.85;100486.19;4988703;28;20042;-66
2021/10/14 02:25:57;;;;;;;4.57;2.13;;;;;;;18.86;32.55;100499.47;4984750;28;20133;-65
2021/10/14 02:28:24;;;;;;;2.47;1.30;;;;;;;18.75;33.08;100495.34;4991408;28;20046;-65
2021/10/14 02:30:51;;;;;;;2.95;1.33;;;;;;;18.78;32.87;100503.16;4989407;28;20046;-65
2021/10/14 02:33:18;;;;;;;1.48;0.70;;;;;;;18.71;33.12;100492.34;4991994;28;20078;-65
2021/10/14 02:35:45;;;;;;;2.80;1.48;;;;;;;18.66;32.92;100498.97;4991721;28;20093;-65
2021/10/14 02:38:12;;;;;;;1.67;1.33;;;;;;;18.64;32.83;100497.69;4989416;28;20138;-66
2021/10/14 02:40:39;;;;;;;4.22;1.63;;;;;;;18.57;33.00;100501.03;4992193;28;20042;-65
2021/10/14 02:43:05;;;;;;;1.35;1.17;;;;;;;18.55;32.98;100494.84;4990273;28;20129;-64
2021/10/14 02:45:32;;;;;;;2.90;1.73;;;;;;;18.52;33.24;100497.53;4991409;28;20133;-64
2021/10/14 02:47:59;;;;;;;0.70;0.50;;;;;;;18.57;33.37;100506.69;4990512;28;20554;-65
2021/10/14 02:50:26;;;;;;;1.85;1.13;;;;;;;18.47;33.32;100488.06;4991560;28;20050;-65
2021/10/14 02:52:53;;;;;;;3.60;1.13;;;;;;;18.53;33.54;100491.56;4993238;28;20053;-64
2021/10/14 02:55:20;;;;;;;1.88;1.30;;;;;;;18.53;33.50;100502.00;4992065;28;20149;-65
2021/10/14 02:57:46;;;;;;;2.45;1.30;;;;;;;18.40;33.30;100472.78;4988514;28;20467;-65
2021/10/14 03:00:14;;;;;;;1.15;0.82;;;;;;;18.40;33.87;100498.22;4984750;28;20158;-64
2021/10/14 03:02:40;;;;;;;2.60;1.17;;;;;;;18.34;34.04;100499.56;4984744;28;20585;-64
2021/10/14 03:05:08;;;;;;;2.72;1.60;;;;;;;18.19;34.12;100473.47;4991762;28;20047;-64
2021/10/14 03:07:35;;;;;;;4.22;2.58;;;;;;;18.29;34.46;100494.06;4991604;28;20073;-61
2021/10/14 03:10:06;;;;;;;2.33;1.58;;;;;;;18.33;34.00;100497.91;4990157;28;20560;-60
2021/10/14 03:12:32;;;;;;;5.07;2.33;;;;;;;18.31;33.95;100488.91;4989328;28;20086;-62
2021/10/14 03:14:59;;;;;;;3.03;1.50;;;;;;;18.44;33.74;100504.88;4992234;28;20108;-62
2021/10/14 03:17:26;;;;;;;3.28;1.38;;;;;;;18.45;33.82;100501.69;4977803;28;20531;-61
2021/10/14 03:19:53;;;;;;;6.37;2.00;;;;;;;18.38;34.31;100494.88;4989334;28;20157;-61
2021/10/14 03:22:21;;;;;;;5.30;1.47;;;;;;;18.47;33.88;100513.50;4976280;28;20137;-62
2021/10/14 03:24:48;;;;;;;2.95;1.52;;;;;;;18.48;34.02;100511.50;4992521;28;20445;-61
2021/10/14 03:27:15;;;;;;;3.05;1.60;;;;;;;18.43;33.71;100511.69;4992165;28;20101;-61
2021/10/14 03:29:43;;;;;;;2.42;1.52;;;;;;;18.38;34.31;100507.03;4989464;28;20122;-61
2021/10/14 03:32:09;;;;;;;2.50;1.52;;;;;;;18.36;34.29;100514.16;4986740;28;20085;-61
2021/10/14 03:34:36;;;;;;;1.48;0.75;;;;;;;18.28;33.95;100509.38;4991151;28;20125;-61
2021/10/14 03:37:03;;;;;;;1.90;1.33;;;;;;;18.32;34.11;100502.69;4988714;28;20073;-65
2021/10/14 03:39:30;;;;;;;5.65;1.23;;;;;;;18.31;34.27;100508.69;4990403;28;20133;-63
2021/10/14 03:41:57;;;;;;;3.38;1.40;;;;;;;18.22;34.54;100503.91;4985750;28;20053;-63
2021/10/14 03:44:24;;;;;;;1.40;0.95;;;;;;;18.22;34.27;100503.91;4990038;28;20081;-66
2021/10/14 03:46:50;;;;;;;4.03;1.48;;;;;;;18.28;34.16;100503.72;4982339;28;20074;-64
2021/10/14 03:49:17;;;;;;;4.18;1.73;;;;;;;18.20;34.50;100503.38;4990095;28;20426;-65
2021/10/14 03:51:44;;;;;;;6.27;2.37;;;;;;;18.30;34.28;100513.53;4991842;28;20077;-64
2021/10/14 03:54:11;;;;;;;3.80;1.50;;;;;;;18.34;34.07;100508.03;4986026;28;20501;-64
2021/10/14 03:56:38;;;;;;;3.88;1.45;;;;;;;18.43;34.09;100526.66;4990653;28;20498;-63
2021/10/14 03:59:05;;;;;;;3.03;1.30;;;;;;;18.42;33.94;100513.66;4987653;28;20090;-63
2021/10/14 04:01:31;;;;;;;3.87;1.60;;;;;;;18.42;34.28;100515.66;4985900;28;20131;-63
2021/10/14 04:03:58;;;;;;;2.60;1.85;;;;;;;18.50;34.07;100514.84;4991043;28;20516;-63
2021/10/14 04:06:25;;;;;;;6.77;1.63;;;;;;;18.53;34.04;100507.66;4990088;28;20549;-68
2021/10/14 04:08:52;;;;;;;2.22;1.30;;;;;;;18.64;33.64;100529.63;4991043;28;20077;-68
2021/10/14 04:11:19;;;;;;;2.65;1.30;;;;;;;18.68;33.49;100535.44;4990461;28;20050;-66
2021/10/14 04:13:46;;;;;;;3.20;1.42;;;;;;;18.60;33.85;100520.16;4991212;28;20078;-67
2021/10/14 04:16:13;;;;;;;2.28;1.35;;;;;;;18.66;33.51;100523.63;4984829;28;20487;-66
2021/10/14 04:18:39;;;;;;;3.20;1.50;;;;;;;18.64;33.48;100535.28;4987136;28;20054;-66
2021/10/14 04:21:06;;;;;;;9.98;1.90;;;;;;;18.57;33.54;100518.00;4990178;28;20092;-66
2021/10/14 04:23:33;;;;;;;2.63;1.43;;;;;;;18.60;33.37;100539.94;4985801;28;20067;-65
2021/10/14 04:26:00;;;;;;;3.53;1.98;;;;;;;18.57;33.83;100551.09;4973110;28;20162;-65
2021/10/14 04:28:27;;;;;;;3.85;1.80;;;;;;;18.51;33.97;100556.09;4987443;28;20051;-65
2021/10/14 04:30:54;;;;;;;5.93;1.77;;;;;;;18.37;34.15;100553.44;4985945;28;20142;-67
2021/10/14 04:33:22;;;;;;;2.35;1.52;;;;;;;18.31;34.27;100548.28;4996403;28;20077;-64
2021/10/14 04:35:49;;;;;;;4.53;1.20;;;;;;;18.23;34.46;100556.44;4980953;28;20541;-63
2021/10/14 04:38:17;;;;;;;5.00;1.67;;;;;;;18.16;34.85;100556.09;4978594;28;20567;-65
2021/10/14 04:40:44;;;;;;;4.33;1.50;;;;;;;18.11;34.83;100546.94;4980959;28;20105;-65
2021/10/14 04:43:11;;;;;;;2.67;1.33;;;;;;;18.15;34.70;100551.63;4973472;28;20470;-66
2021/10/14 04:45:38;;;;;;;3.43;1.40;;;;;;;18.16;34.96;100549.63;4990250;28;20473;-66
2021/10/14 04:48:05;;;;;;;3.10;2.17;;;;;;;18.26;34.85;100554.13;4991496;28;20454;-67
2021/10/14 04:50:32;;;;;;;3.13;1.57;;;;;;;18.23;34.51;100544.28;4978940;28;20058;-63
2021/10/14 04:52:59;;;;;;;3.05;1.50;;;;;;;18.31;34.33;100549.09;4975978;28;20053;-61
2021/10/14 04:55:25;;;;;;;4.07;1.53;;;;;;;18.35;34.40;100558.56;4990208;28;20042;-60
2021/10/14 04:57:52;;;;;;;2.97;1.48;;;;;;;18.38;34.39;100554.25;4991041;28;20074;-60
2021/10/14 05:00:19;;;;;;;3.80;1.60;;;;;;;18.31;34.09;100551.09;4988002;28;20088;-60
2021/10/14 05:02:46;;;;;;;2.93;1.23;;;;;;;18.36;34.52;100557.44;4985435;28;20531;-60
2021/10/14 05:05:13;;;;;;;3.87;1.70;;;;;;;18.36;34.33;100557.44;4990755;28;20046;-61
2021/10/14 05:07:40;;;;;;;2.23;1.30;;;;;;;18.37;34.56;100561.91;4989827;28;20148;-60
2021/10/14 05:10:07;;;;;;;4.03;1.40;;;;;;;18.43;34.08;100559.75;4989169;28;20046;-65
2021/10/14 05:12:35;;;;;;;4.77;1.80;;;;;;;18.55;34.05;100556.25;4993561;28;20129;-62
2021/10/14 05:15:06;;;;;;;3.57;1.60;;;;;;;18.54;33.72;100555.41;4995988;28;20413;-70
2021/10/14 05:17:34;;;;;;;2.83;1.63;;;;;;;18.60;33.36;100562.56;4988130;28;20080;-63
2021/10/14 05:20:05;;;;;;;2.93;1.80;;;;;;;18.55;33.44;100548.59;4992804;28;20162;-62
2021/10/14 05:22:32;;;;;;;5.97;3.07;;;;;;;18.62;34.25;100567.88;4995117;28;20490;-61
2021/10/14 05:24:59;;;;;;;4.45;2.60;;;;;;;18.50;34.50;100557.25;4988932;28;20359;-65
2021/10/14 05:27:26;;;;;;;6.73;3.57;;;;;;;18.46;34.90;100556.25;4987721;28;20057;-60
2021/10/14 05:29:53;;;;;;;8.80;5.17;;;;;;;18.33;34.89;100560.94;4991033;28;20093;-65
2021/10/14 05:32:19;;;;;;;5.07;2.45;;;;;;;17.99;34.52;100533.47;4991191;28;20133;-66
2021/10/14 05:34:46;;;;;;;9.03;5.47;;;;;;;18.24;35.01;100563.72;4990226;28;20137;-66
2021/10/14 05:37:13;;;;;;;4.90;3.20;;;;;;;17.87;34.49;100508.69;4986885;28;20125;-64
2021/10/14 05:39:40;;;;;;;3.57;2.07;;;;;;;18.19;34.55;100563.91;4988967;28;20053;-64
2021/10/14 05:42:07;;;;;;;3.40;1.60;;;;;;;18.19;34.70;100560.25;4987946;28;20142;-59
2021/10/14 05:44:34;;;;;;;3.27;2.10;;;;;;;18.13;34.58;100550.28;4990101;28;20125;-59
2021/10/14 05:47:00;;;;;;;3.60;1.80;;;;;;;18.20;34.56;100562.75;4990029;28;20133;-60
2021/10/14 05:49:27;;;;;;;4.80;2.17;;;;;;;18.27;34.58;100564.25;4994012;28;20129;-59
2021/10/14 05:51:54;;;;;;;5.70;2.27;;;;;;;18.07;34.82;100543.13;4990974;28;20153;-59
2021/10/14 05:54:21;;;;;;;5.77;2.07;;;;;;;18.14;35.23;100552.75;4991955;28;20038;-59
2021/10/14 05:56:48;;;;;;;4.35;1.80;;;;;;;18.14;35.23;100561.22;4991336;28;20458;-59
2021/10/14 05:59:14;;;;;;;4.57;2.17;;;;;;;18.13;35.49;100561.59;4981310;28;20130;-59
2021/10/14 06:01:41;;;;;;;3.42;1.95;;;;;;;18.18;35.46;100567.88;4991280;28;20129;-58
2021/10/14 06:04:09;;;;;;;6.33;1.70;;;;;;;18.13;34.86;100564.41;4985391;28;20093;-59
2021/10/14 06:06:35;;;;;;;3.30;1.67;;;;;;;17.92;34.87;100559.41;4983522;28;20093;-59
2021/10/14 06:09:02;;;;;;;3.17;1.60;;;;;;;17.85;34.82;100552.56;4988793;28;20047;-59
2021/10/14 06:11:29;;;;;;;5.53;1.93;;;;;;;17.82;35.17;100556.06;4991597;28;20093;-59
2021/10/14 06:13:56;;;;;;;7.60;1.90;;;;;;;17.72;35.21;100551.50;4981574;28;20093;-59
2021/10/14 06:16:23;;;;;;;4.33;1.40;;;;;;;17.58;35.25;100533.88;4981703;28;20142;-59
2021/10/14 06:18:50;;;;;;;1.70;1.13;;;;;;;17.59;35.13;100547.66;4990022;28;20052;-59
2021/10/14 06:21:16;;;;;;;4.63;1.70;;;;;;;17.56;35.37;100548.31;4992179;28;20074;-60
2021/10/14 06:23:44;;;;;;;4.47;1.50;;;;;;;17.62;35.44;100555.47;4986968;28;20407;-60
2021/10/14 06:26:11;;;;;;;9.00;2.40;;;;;;;17.60;35.17;100546.47;4993826;28;20133;-59
2021/10/14 06:28:38;;;;;;;4.80;2.23;;;;;;;17.68;35.00;100562.63;4991057;28;20046;-59
2021/10/14 06:31:05;;;;;;;2.53;1.33;;;;;;;17.72;35.07;100557.16;4991460;28;20133;-63
2021/10/14 06:33:32;;;;;;;3.63;1.17;;;;;;;17.61;35.32;100565.13;4992747;28;20052;-59
2021/10/14 06:35:58;;;;;;;2.93;1.40;;;;;;;17.50;35.70;100560.91;4988540;28;20043;-59
2021/10/14 06:38:25;;;;;;;5.53;2.53;;;;;;;17.38;35.78;100566.34;4983324;28;20473;-58
2021/10/14 06:40:52;;;;;;;2.93;1.40;;;;;;;17.43;35.79;100583.97;4982821;28;20091;-59
2021/10/14 06:43:19;;;;;;;5.67;1.77;;;;;;;17.46;35.56;100582.47;4988611;28;20345;-59
2021/10/14 06:45:46;;;;;;;3.27;1.40;;;;;;;17.49;35.56;100576.19;4987778;28;20528;-59
2021/10/14 06:48:13;;;;;;;6.20;1.47;;;;;;;17.44;35.73;100563.06;4987202;28;20050;-61
2021/10/14 06:50:40;;;;;;;2.53;1.30;;;;;;;17.45;35.65;100576.00;4991806;28;20088;-63
2021/10/14 06:53:08;;;;;;;2.63;1.40;;;;;;;17.51;35.37;100586.00;4993589;28;20054;-59
2021/10/14 06:55:37;;;;;;;3.75;1.25;;;;;;;17.56;35.71;100581.34;4993667;28;20050;-67
2021/10/14 06:58:04;;;;;;;3.70;1.50;;;;;;;17.63;35.24;100585.38;4975293;28;20126;-66
2021/10/14 07:00:30;;;;;;;3.93;2.03;;;;;;;17.64;35.68;100578.56;4975546;28;20051;-65
2021/10/14 07:02:58;;;;;;;3.40;1.70;;;;;;;17.75;35.13;100582.75;4984921;28;20058;-65
2021/10/14 07:05:25;;;;;;;6.03;1.90;;;;;;;17.77;35.41;100585.28;4991125;28;20101;-65
2021/10/14 07:07:51;;;;;;;4.27;1.40;;;;;;;17.65;35.60;100574.59;4993921;28;20458;-59
2021/10/14 07:10:18;;;;;;;3.33;1.70;;;;;;;17.65;36.15;100580.22;4980319;28;20050;-59
2021/10/14 07:12:45;;;;;;;5.13;1.53;;;;;;;17.62;35.90;100586.53;4974378;28;20074;-59
2021/10/14 07:15:12;;;;;;;3.97;1.47;;;;;;;17.65;36.08;100579.41;4974816;28;20074;-59
2021/10/14 07:17:39;;;;;;;3.13;1.50;;;;;;;17.62;35.96;100568.75;4988471;28;20097;-59
2021/10/14 07:20:07;;;;;;;1.73;1.30;;;;;;;17.75;36.13;100579.94;4988568;28;20055;-60
2021/10/14 07:22:35;;;;;;;1.95;1.20;;;;;;;17.66;35.78;100558.47;4974203;28;20051;-59
2021/10/14 07:25:03;;;;;;;7.28;1.38;;;;;;;18.08;35.29;100568.22;4978537;28;20125;-59
2021/10/14 07:27:30;;;;;;;3.40;2.30;;;;;;;18.30;35.54;100595.50;4974173;28;20085;-59
2021/10/14 07:29:58;;;;;;;4.80;2.53;;;;;;;18.40;35.08;100600.00;4973853;28;20050;-59
2021/10/14 07:32:25;;;;;;;4.95;2.85;;;;;;;18.47;34.97;100604.00;4984190;28;20266;-59
2021/10/14 07:34:51;;;;;;;10.43;2.97;;;;;;;18.57;34.77;100602.84;4984630;28;20382;-59
2021/10/14 07:37:21;;;;;;;11.50;2.33;;;;;;;18.72;34.77;100609.16;4990576;28;20134;-59
2021/10/14 07:39:48;;;;;;;3.83;1.98;;;;;;;18.86;34.69;100619.13;4973707;28;20097;-59
2021/10/14 07:42:15;;;;;;;11.63;2.20;;;;;;;18.95;34.38;100616.31;4974109;28;20075;-59
2021/10/14 07:44:42;;;;;;;4.38;2.10;;;;;;;19.21;34.28;100618.22;4973749;28;20174;-59
2021/10/14 07:47:09;;;;;;;4.38;1.60;;;;;;;19.16;34.05;100611.59;4989829;28;20053;-59
2021/10/14 07:49:36;;;;;;;6.22;2.80;;;;;;;19.44;34.23;100633.81;4987928;28;20564;-59
2021/10/14 07:52:03;;;;;;;3.28;1.50;;;;;;;19.44;33.91;100611.16;4985468;28;20086;-59
2021/10/14 07:54:30;;;;;;;3.17;1.70;;;;;;;19.52;33.93;100624.47;4981941;28;20142;-59
2021/10/14 07:56:57;;;;;;;2.38;1.70;;;;;;;19.75;33.77;100638.38;4986395;28;20548;-59
2021/10/14 07:59:24;;;;;;;4.60;1.58;;;;;;;19.71;33.52;100626.91;4992844;28;20078;-59
2021/10/14 08:01:51;;;;;;;7.80;1.63;;;;;;;19.73;33.37;100603.91;4990395;28;20042;-59
2021/10/14 08:04:18;;;;;;;4.55;1.63;;;;;;;20.13;33.17;100636.34;4987457;28;20108;-59
2021/10/14 08:06:45;;;;;;;4.00;2.10;;;;;;;20.24;33.29;100627.44;4992578;28;20043;-59
2021/10/14 08:09:12;;;;;;;5.57;1.70;;;;;;;20.20;33.09;100649.13;4992563;28;20474;-59
2021/10/14 08:11:39;;;;;;;6.05;2.17;;;;;;;20.14;33.43;100645.69;4975731;28;20475;-59
2021/10/14 08:14:07;;;;;;;5.93;2.17;;;;;;;20.37;33.41;100643.34;4980151;28;20391;-60
2021/10/14 08:16:34;;;;;;;3.03;1.67;;;;;;;20.54;33.13;100651.75;4985939;28;20157;-59
2021/10/14 08:19:01;;;;;;;5.47;2.33;;;;;;;20.72;33.18;100660.16;4990957;28;20050;-59
2021/10/14 08:21:28;;;;;;;3.70;1.65;;;;;;;21.21;32.63;100663.19;4981967;28;20082;-59
2021/10/14 08:23:55;;;;;;;5.50;1.80;;;;;;;21.44;32.07;100609.69;4983307;28;20125;-60
2021/10/14 08:26:22;;;;;;;2.47;1.65;;;;;;;22.30;31.64;100649.50;4984678;28;20129;-59
2021/10/14 08:28:48;;;;;;;2.45;1.70;;;;;;;22.98;30.52;100671.56;4992479;28;20046;-59
2021/10/14 08:31:16;;;;;;;3.38;1.88;;;;;;;23.38;30.34;100669.47;4986790;28;20054;-60
2021/10/14 08:33:43;;;;;;;6.35;2.42;;;;;;;23.42;29.97;100624.78;4986340;28;20137;-59
2021/10/14 08:36:10;;;;;;;4.95;2.33;;;;;;;24.09;29.88;100656.25;4976639;28;20138;-60
2021/10/14 08:38:37;;;;;;;4.10;2.28;;;;;;;24.29;29.13;100673.44;4974464;28;20075;-60
2021/10/14 08:41:04;;;;;;;3.58;1.88;;;;;;;24.18;29.22;100649.53;4989050;28;20449;-60
2021/10/14 08:43:34;;;;;;;3.55;1.90;;;;;;;23.91;28.95;100631.34;4986637;28;20189;-59
2021/10/14 08:46:02;;;;;;;4.45;2.30;;;;;;;24.17;29.18;100668.69;4973798;28;20376;-59
2021/10/14 08:48:30;;;;;;;4.00;2.15;;;;;;;24.33;28.88;100671.50;4993137;28;20056;-59
2021/10/14 08:50:56;;;;;;;6.75;2.53;;;;;;;24.12;28.56;100668.94;4994652;28;20046;-59
2021/10/14 08:53:23;;;;;;;3.78;1.85;;;;;;;24.11;29.09;100670.97;4996171;28;20133;-59
2021/10/14 08:55:50;;;;;;;9.05;2.90;;;;;;;24.30;28.83;100658.78;4996425;28;20141;-59
2021/10/14 08:58:17;;;;;;;3.38;2.50;;;;;;;24.53;29.05;100675.25;4994432;28;20132;-57
2021/10/14 09:01:03;;;;;;;4.15;2.30;;;;;;;24.56;28.55;100680.22;4989155;28;20052;-57
2021/10/14 09:03:30;;;;;;;6.95;2.25;;;;;;;24.73;28.77;100681.84;4996372;28;20046;-58
2021/10/14 09:05:58;;;;;;;6.82;2.63;;;;;;;24.53;28.53;100669.56;4979681;28;20125;-58
2021/10/14 09:08:32;;;;;;;9.10;2.40;;;;;;;24.39;28.54;100669.19;4985303;28;20078;-59
2021/10/14 09:11:10;;;;;;;2.45;1.75;;;;;;;24.50;28.75;100687.41;4995864;28;20551;-59
2021/10/14 09:13:40;;;;;;;7.00;3.03;;;;;;;24.83;28.70;100693.50;4989037;28;20142;-59
2021/10/14 09:16:35;;;;;;;5.85;3.17;;;;;;;25.35;28.73;100690.50;4976665;28;20047;-59
2021/10/14 09:19:20;;;;;;;5.13;2.20;;;;;;;25.28;28.43;100683.44;4976339;28;20075;-59
2021/10/14 09:21:59;;;;;;;9.50;2.90;;;;;;;25.32;28.32;100699.84;4976579;28;20053;-59
2021/10/14 09:24:35;;;;;;;3.78;2.17;;;;;;;25.60;28.27;100691.81;4976274;28;20082;-59
2021/10/14 09:27:13;;;;;;;4.75;2.20;;;;;;;25.80;27.57;100706.09;4976426;28;20054;-59
2021/10/14 09:29:40;;;;;;;7.95;3.00;;;;;;;25.94;27.85;100704.31;4976377;28;20145;-59
2021/10/14 09:32:18;;;;;;;7.50;2.85;;;;;;;25.77;27.98;100697.03;4980260;28;20078;-59
2021/10/14 09:34:49;;;;;;;;;;;;;;;25.22;28.60;100701.28;4987648;28;20137;-59
2021/10/14 09:37:16;;;;;;;12.98;3.05;;;;;;;25.51;28.58;100714.94;4985169;28;19922;-59
2021/10/14 09:40:04;;;;;;;7.47;3.05;;;;;;;25.70;27.89;100708.34;4994900;28;20047;-59
2021/10/14 09:42:41;;;;;;;6.60;3.42;;;;;;;25.85;28.24;100711.53;4995534;28;20147;-59
2021/10/14 09:45:30;;;;;;;8.10;3.15;;;;;;;26.16;27.83;100705.53;4992591;28;20054;-59
2021/10/14 09:48:03;;;;;;;10.40;3.65;;;;;;;26.07;27.66;100710.69;4994035;28;20058;-60
2021/10/14 09:50:31;;;;;;;6.35;2.22;;;;;;;26.11;27.91;100714.44;4993307;28;20585;-59
2021/10/14 09:52:59;;;;;;;7.50;2.95;;;;;;;25.83;28.14;100713.94;4995097;28;20165;-59
2021/10/14 09:55:27;;;;;;;8.25;3.30;;;;;;;25.51;28.33;100726.38;4993285;28;20175;-59
2021/10/14 09:57:55;;;;;;;7.13;2.95;;;;;;;25.68;28.25;100724.25;4994976;28;20125;-59
2021/10/14 10:00:23;;;;;;;7.70;2.70;;;;;;;26.02;28.24;100719.59;4979649;28;20130;-59
2021/10/14 10:02:52;;;;;;;5.28;2.95;;;;;;;26.56;27.75;100711.91;4985622;28;20077;-59
2021/10/14 10:05:19;;;;;;;6.63;2.63;;;;;;;27.27;27.13;100723.56;4994879;28;20133;-59
2021/10/14 10:07:49;;;;;;;6.80;2.90;;;;;;;27.97;26.73;100717.00;4995031;28;20077;-60
2021/10/14 10:10:17;;;;;;;;;;;;;;;28.12;27.07;100709.34;4994149;28;20057;-59
2021/10/14 10:12:45;;;;;;;9.02;2.72;;;;;;;28.94;26.17;100712.81;4994637;28;20417;-59
2021/10/14 10:15:12;;;;;;;8.40;3.30;;;;;;;29.42;25.30;100723.31;4977058;28;20134;-59
2021/10/14 10:17:41;;;;;;;7.45;2.55;;;;;;;29.52;24.77;100691.72;4988586;28;20054;-59
2021/10/14 10:20:10;;;;;;;5.93;3.03;;;;;;;29.72;24.32;100711.53;4988356;28;20078;-59
2021/10/14 10:22:37;;;;;;;5.03;2.50;;;;;;;29.73;24.33;100713.16;4975246;28;20051;-60
2021/10/14 10:25:39;;;;;;;4.45;2.65;;;;;;;29.63;24.61;100708.22;4985307;28;20046;-59
2021/10/14 10:28:26;;;;;;;5.32;3.40;;;;;;;29.57;24.43;100704.88;4961268;28;20102;-60
2021/10/14 10:30:54;;;;;;;7.70;3.22;;;;;;;29.58;24.68;100697.09;4977062;28;20054;-60
2021/10/14 10:33:53;;;;;;;6.60;2.53;;;;;;;29.02;24.53;100668.50;4979542;28;20086;-59
2021/10/14 10:36:38;;;;;;;;;;;;;;;27.88;25.64;100690.66;4991984;28;20082;-60
2021/10/14 10:39:05;;;;;;;5.78;2.75;;;;;;;27.44;25.85;100700.00;4994404;28;20012;-59
2021/10/14 10:41:32;;;;;;;3.50;2.55;;;;;;;27.01;26.87;100693.75;4994094;28;20061;-59
2021/10/14 10:43:59;;;;;;;6.18;2.90;;;;;;;26.46;27.45;100690.44;4989048;28;20130;-59
2021/10/14 10:46:28;;;;;;;8.75;2.83;;;;;;;26.15;27.79;100685.88;4974936;28;20543;-59
2021/10/14 10:49:18;;;;;;;8.55;4.82;;;;;;;25.79;28.51;100670.94;4989858;28;20042;-59
2021/10/14 10:51:45;;;;;;;7.35;3.58;;;;;;;25.80;29.51;100691.81;4993775;28;20089;-59
2021/10/14 10:54:39;;;;;;;8.88;3.55;;;;;;;25.77;29.44;100673.31;4978047;28;20086;-59
2021/10/14 10:57:45;;;;;;;8.68;3.33;;;;;;;25.76;29.98;100663.94;4993016;28;20086;-59
2021/10/14 11:00:13;;;;;;;6.13;2.97;;;;;;;26.13;29.52;100676.84;4981135;28;20083;-60
2021/10/14 11:02:41;;;;;;;3.83;2.67;;;;;;;26.47;29.04;100657.78;4991551;28;20081;-60
2021/10/14 11:05:08;;;;;;;5.00;3.42;;;;;;;27.14;28.20;100686.53;4993867;28;20046;-60
2021/10/14 11:07:35;;;;;;;6.55;3.88;;;;;;;27.62;28.20;100671.50;4993985;28;20125;-59
2021/10/14 11:10:03;;;;;;;6.57;3.65;;;;;;;28.05;27.55;100690.00;4984912;28;20463;-59
2021/10/14 11:12:31;;;;;;;6.07;2.78;;;;;;;28.33;27.15;100692.28;4974199;28;20149;-60
2021/10/14 11:14:57;;;;;;;6.13;2.75;;;;;;;28.44;26.53;100689.50;4974592;28;20078;-59
2021/10/14 11:17:25;;;;;;;5.15;2.15;;;;;;;28.43;26.02;100672.69;4983083;28;20533;-59
2021/10/14 11:20:06;;;;;;;9.13;3.40;;;;;;;28.78;26.06;100695.06;4993210;28;20046;-60
2021/10/14 11:22:33;;;;;;;5.72;2.70;;;;;;;29.36;25.46;100687.53;4993735;28;20122;-60
2021/10/14 11:25:13;;;;;;;5.15;3.22;;;;;;;29.47;25.59;100671.13;4990322;28;20129;-59
2021/10/14 11:27:40;;;;;;;6.63;2.97;;;;;;;29.60;25.03;100688.88;4974142;28;20078;-60
2021/10/14 11:30:18;;;;;;;6.93;2.53;;;;;;;28.93;25.31;100670.09;4973981;28;20170;-60
2021/10/14 11:33:10;;;;;;;6.72;3.20;;;;;;;28.56;25.96;100683.44;4983398;28;20233;-60